Imperial, MO

5:53 PM CST on December 22, 2014 (GMT -0600)
summerfield | Change Station
CLOSE
Current Station
Personal Weather Station
Location: Imperial, MO
Elevation: 440 ft
Nearby Weather Stations

Elev 440 ft 38.38 °N, 90.40 °W | Updated 5 seconds ago

Mostly Cloudy
Mostly Cloudy
48.6 °F
Feels Like 49 °F
N
0.0
Wind Variable Wind from SE
Gusts 0.0 mph

Today
High -- | Low -- °F
--% Chance of Precip.
Yesterday
High -- | Low -- °F
Precip. -- in
7:15 AM 4:45 PM
New Moon, 1% visible
Pressure 29.55 in
Visibility 4.0 miles
Clouds Overcast 600 ft
Windchill 49 °F
Dew Point 44 °F
Humidity 84%
Rainfall 0.40 in
Snow Depth Not available.
UV 0 out of 12
Pollen 3.00 out of 12
Air Quality Not available.
Flu Activity Not available.
METAR KCPS 222253Z 15007KT 4SM -RA BR OVC006 10/09 A2955 RMK AO2 RAB2154 SLP007 P0004 T01000089

More Conditions Fewer Conditions

Pressure 29.55 in
Visibility 4.0 miles
Clouds Overcast 600 ft
Windchill 49 °F
Dew Point 44 °F
Humidity 84%
Rainfall 0.40 in
Snow Depth Not available.
UV 0 out of 12
Pollen 3.00 out of 12
Air Quality Not available.
Flu Activity Not available.
METAR KCPS 222253Z 15007KT 4SM -RA BR OVC006 10/09 A2955 RMK AO2 RAB2154 SLP007 P0004 T01000089

More Conditions Fewer Conditions

10-Day Weather Forecast

Almanac

Astronomy

Dec. 22, 2014 Rise Set
Actual Time
Civil Twilight
Nautical Twilight
Astronomical Twilight
Moon
Length of Visible Light
Length of Day
Tomorrow will be .
, % of the Moon is Illuminated

Today's Extremes

State Highs State Lows

Community

WunderPhotos

Upload Photos

1,779,723 photos uploaded!

WunderBlogs® & News

Nearby

Air Quality

  Air Quality AQ Index Pollutant
Not available.

Snow Depth

Station Depth Elevation

Earthquake Activity

City Distance Mag. Time & Date
Minimum magnitude displayed is 2.5.

Coastal Water Temperatures

Place Temperature

Nearby Weather Stations